Anselmo, Nebraska
Current Conditions -  °F | °C
As of 6:53 AM on Thursday 23 Oct 2014 (Local Time) from KBBW Reporting Station
Moderate Fog Moderate Fog  
Wind Chill: 40°   Ceiling: 100
Heat Index: 40°   Visibility: 0.25mi
Dew Point: 39°   Wind: 0mph
Humidity: 97%   Direction: NA
Pressure: 30.06"   Gusts: NA
Location:  41.62°N, 99.87°W
Report Text: KBBW 231153Z AUTO 00000KT 1/4SM FG VV001 04/04 A3006 RMK AO2 SLP181 70023 T00440039 10067 20039 50001
Loading
Personal Weather Stations






























Interactive Weather Map
Tropical Storm Tracking
New forecast layout! Learn more

10-Day Weather Forecast

Advertisements
Track Severe Weather on mobile